sensor_id;sensor_type;location;lat;lon;timestamp;pressure;altitude;pressure_sealevel;temperature;humidity
69749;BME280;57019;52.354;6.584;2022-08-02T00:02:21;101943.34;;;22.84;45.23
69749;BME280;57019;52.354;6.584;2022-08-02T00:04:47;101932.81;;;22.84;45.25
69749;BME280;57019;52.354;6.584;2022-08-02T00:07:12;101932.81;;;22.84;45.10
69749;BME280;57019;52.354;6.584;2022-08-02T00:09:39;101928.38;;;22.85;44.99
69749;BME280;57019;52.354;6.584;2022-08-02T00:12:04;101920.66;;;22.83;45.22
69749;BME280;57019;52.354;6.584;2022-08-02T00:14:30;101918.84;;;22.84;45.16
69749;BME280;57019;52.354;6.584;2022-08-02T00:16:55;101925.91;;;22.83;45.13
69749;BME280;57019;52.354;6.584;2022-08-02T00:19:20;101925.91;;;22.83;45.26
69749;BME280;57019;52.354;6.584;2022-08-02T00:21:46;101918.03;;;22.83;45.28
69749;BME280;57019;52.354;6.584;2022-08-02T00:24:11;101925.91;;;22.83;45.22
69749;BME280;57019;52.354;6.584;2022-08-02T00:26:36;101917.34;;;22.81;45.27
69749;BME280;57019;52.354;6.584;2022-08-02T00:29:02;101911.28;;;22.81;45.09
69749;BME280;57019;52.354;6.584;2022-08-02T00:31:28;101924.44;;;22.81;45.27
69749;BME280;57019;52.354;6.584;2022-08-02T00:33:53;101931.50;;;22.80;45.28
69749;BME280;57019;52.354;6.584;2022-08-02T00:36:19;101927.41;;;22.78;45.30
69749;BME280;57019;52.354;6.584;2022-08-02T00:38:44;101922.97;;;22.78;45.25
69749;BME280;57019;52.354;6.584;2022-08-02T00:41:15;101914.09;;;22.79;45.18
69749;BME280;57019;52.354;6.584;2022-08-02T00:43:41;101919.50;;;22.78;45.43
69749;BME280;57019;52.354;6.584;2022-08-02T00:46:07;101907.19;;;22.78;45.45
69749;BME280;57019;52.354;6.584;2022-08-02T00:48:32;101901.06;;;22.78;45.26
69749;BME280;57019;52.354;6.584;2022-08-02T00:50:57;101902.72;;;22.79;45.35
69749;BME280;57019;52.354;6.584;2022-08-02T00:53:23;101903.56;;;22.79;45.36
69749;BME280;57019;52.354;6.584;2022-08-02T00:55:48;101907.19;;;22.78;45.41
69749;BME280;57019;52.354;6.584;2022-08-02T00:58:13;101907.19;;;22.78;45.29
69749;BME280;57019;52.354;6.584;2022-08-02T01:00:39;101897.00;;;22.75;45.42
69749;BME280;57019;52.354;6.584;2022-08-02T01:03:04;101904.91;;;22.75;45.35
69749;BME280;57019;52.354;6.584;2022-08-02T01:05:29;101897.16;;;22.74;45.51
69749;BME280;57019;52.354;6.584;2022-08-02T01:07:55;101894.38;;;22.75;45.28
69749;BME280;57019;52.354;6.584;2022-08-02T01:10:20;101899.63;;;22.75;45.28
69749;BME280;57019;52.354;6.584;2022-08-02T01:12:46;101892.06;;;22.72;45.45
69749;BME280;57019;52.354;6.584;2022-08-02T01:15:13;101896.34;;;22.73;45.30
69749;BME280;57019;52.354;6.584;2022-08-02T01:17:47;101888.63;;;22.72;45.29
69749;BME280;57019;52.354;6.584;2022-08-02T01:21:21;101895.72;;;22.71;45.37
69749;BME280;57019;52.354;6.584;2022-08-02T01:26:59;101902.94;;;22.69;45.24
69749;BME280;57019;52.354;6.584;2022-08-02T01:31:56;101895.22;;;22.67;45.38
69749;BME280;57019;52.354;6.584;2022-08-02T01:34:30;101898.03;;;22.66;45.66
69749;BME280;57019;52.354;6.584;2022-08-02T01:37:47;101882.25;;;22.66;45.41
69749;BME280;57019;52.354;6.584;2022-08-02T01:39:53;101885.84;;;22.65;45.44
69749;BME280;57019;52.354;6.584;2022-08-02T01:42:21;101891.13;;;22.65;45.33
69749;BME280;57019;52.354;6.584;2022-08-02T01:44:50;101895.59;;;22.64;45.53
69749;BME280;57019;52.354;6.584;2022-08-02T01:47:23;101887.03;;;22.62;45.54
69749;BME280;57019;52.354;6.584;2022-08-02T01:49:52;101885.38;;;22.61;45.32
69749;BME280;57019;52.354;6.584;2022-08-02T01:52:20;101881.13;;;22.60;45.26
69749;BME280;57019;52.354;6.584;2022-08-02T01:55:00;101881.13;;;22.60;45.50
69749;BME280;57019;52.354;6.584;2022-08-02T01:57:44;101879.31;;;22.61;45.49
69749;BME280;57019;52.354;6.584;2022-08-02T02:00:11;101869.75;;;22.60;45.23
69749;BME280;57019;52.354;6.584;2022-08-02T02:02:41;101870.78;;;22.59;45.33
69749;BME280;57019;52.354;6.584;2022-08-02T02:05:11;101874.38;;;22.58;45.43
69749;BME280;57019;52.354;6.584;2022-08-02T02:07:37;101866.66;;;22.56;45.29
69749;BME280;57019;52.354;6.584;2022-08-02T02:10:05;101865.03;;;22.55;45.43
69749;BME280;57019;52.354;6.584;2022-08-02T02:12:33;101871.09;;;22.56;45.54
69749;BME280;57019;52.354;6.584;2022-08-02T02:15:01;101864.22;;;22.55;45.37
69749;BME280;57019;52.354;6.584;2022-08-02T02:17:27;101857.31;;;22.53;45.39
69749;BME280;57019;52.354;6.584;2022-08-02T02:19:54;101857.31;;;22.53;45.36
69749;BME280;57019;52.354;6.584;2022-08-02T02:22:21;101855.66;;;22.52;45.43
69749;BME280;57019;52.354;6.584;2022-08-02T02:24:47;101859.28;;;22.51;45.27
69749;BME280;57019;52.354;6.584;2022-08-02T02:27:13;101861.91;;;22.51;45.52
69749;BME280;57019;52.354;6.584;2022-08-02T02:29:43;101852.41;;;22.50;45.38
69749;BME280;57019;52.354;6.584;2022-08-02T02:32:11;101860.28;;;22.50;45.70
69749;BME280;57019;52.354;6.584;2022-08-02T02:34:41;101854.38;;;22.48;45.23
69749;BME280;57019;52.354;6.584;2022-08-02T02:37:13;101850.09;;;22.47;45.35
69749;BME280;57019;52.354;6.584;2022-08-02T02:39:41;101843.19;;;22.46;45.43
69749;BME280;57019;52.354;6.584;2022-08-02T02:42:10;101854.53;;;22.47;45.31
69749;BME280;57019;52.354;6.584;2022-08-02T02:44:38;101840.56;;;22.46;45.51
69749;BME280;57019;52.354;6.584;2022-08-02T02:47:05;101843.19;;;22.46;45.33
69749;BME280;57019;52.354;6.584;2022-08-02T02:49:33;101844.00;;;22.47;45.43
69749;BME280;57019;52.354;6.584;2022-08-02T02:51:59;101836.28;;;22.45;45.46
69749;BME280;57019;52.354;6.584;2022-08-02T02:54:26;101829.38;;;22.44;45.44
69749;BME280;57019;52.354;6.584;2022-08-02T02:56:52;101818.06;;;22.44;45.37
69749;BME280;57019;52.354;6.584;2022-08-02T02:59:18;101821.50;;;22.44;45.54
69749;BME280;57019;52.354;6.584;2022-08-02T03:01:44;101811.94;;;22.43;45.42
69749;BME280;57019;52.354;6.584;2022-08-02T03:04:11;101824.13;;;22.44;45.46
69749;BME280;57019;52.354;6.584;2022-08-02T03:06:37;101815.59;;;22.42;45.48
69749;BME280;57019;52.354;6.584;2022-08-02T03:09:04;101812.97;;;22.42;45.40
69749;BME280;57019;52.354;6.584;2022-08-02T03:11:30;101814.94;;;22.40;45.29
69749;BME280;57019;52.354;6.584;2022-08-02T03:13:58;101821.19;;;22.39;45.46
69749;BME280;57019;52.354;6.584;2022-08-02T03:16:25;101823.81;;;22.39;45.38
69749;BME280;57019;52.354;6.584;2022-08-02T03:18:53;101823.19;;;22.37;45.44
69749;BME280;57019;52.354;6.584;2022-08-02T03:21:18;101818.72;;;22.38;45.43
69749;BME280;57019;52.354;6.584;2022-08-02T03:23:44;101826.81;;;22.36;45.45
69749;BME280;57019;52.354;6.584;2022-08-02T03:26:09;101813.63;;;22.36;45.44
69749;BME280;57019;52.354;6.584;2022-08-02T03:28:35;101818.09;;;22.35;45.48
69749;BME280;57019;52.354;6.584;2022-08-02T03:31:00;101828.63;;;22.35;45.47
69749;BME280;57019;52.354;6.584;2022-08-02T03:33:27;101820.91;;;22.34;45.25
69749;BME280;57019;52.354;6.584;2022-08-02T03:35:54;101813.97;;;22.33;45.47
69749;BME280;57019;52.354;6.584;2022-08-02T03:38:21;101810.38;;;22.34;45.50
69749;BME280;57019;52.354;6.584;2022-08-02T03:40:48;101811.19;;;22.34;45.44
69749;BME280;57019;52.354;6.584;2022-08-02T03:43:14;101807.06;;;22.32;45.34
69749;BME280;57019;52.354;6.584;2022-08-02T03:45:45;101795.53;;;22.33;45.39
69749;BME280;57019;52.354;6.584;2022-08-02T03:48:12;101804.09;;;22.35;45.44
69749;BME280;57019;52.354;6.584;2022-08-02T03:50:39;101803.44;;;22.33;45.17
69749;BME280;57019;52.354;6.584;2022-08-02T03:53:05;101801.78;;;22.32;45.36
69749;BME280;57019;52.354;6.584;2022-08-02T03:55:31;101795.72;;;22.31;45.25
69749;BME280;57019;52.354;6.584;2022-08-02T03:57:57;101789.63;;;22.31;45.39
69749;BME280;57019;52.354;6.584;2022-08-02T04:00:23;101794.88;;;22.31;45.51
69749;BME280;57019;52.354;6.584;2022-08-02T04:02:49;101793.28;;;22.30;45.14
69749;BME280;57019;52.354;6.584;2022-08-02T04:05:16;101790.63;;;22.30;45.39
69749;BME280;57019;52.354;6.584;2022-08-02T04:07:42;101795.06;;;22.29;45.12
69749;BME280;57019;52.354;6.584;2022-08-02T04:10:10;101796.88;;;22.29;45.14
69749;BME280;57019;52.354;6.584;2022-08-02T04:12:36;101795.25;;;22.28;45.32
69749;BME280;57019;52.354;6.584;2022-08-02T04:15:14;101798.03;;;22.26;45.32
69749;BME280;57019;52.354;6.584;2022-08-02T04:17:47;101799.88;;;22.26;45.21
69749;BME280;57019;52.354;6.584;2022-08-02T04:20:17;101788.69;;;22.24;45.43
69749;BME280;57019;52.354;6.584;2022-08-02T04:22:56;101784.22;;;22.24;45.43
69749;BME280;57019;52.354;6.584;2022-08-02T04:25:23;101785.06;;;22.25;45.22
69749;BME280;57019;52.354;6.584;2022-08-02T04:27:49;101791.97;;;22.26;45.35
69749;BME280;57019;52.354;6.584;2022-08-02T04:30:16;101792.97;;;22.25;45.41
69749;BME280;57019;52.354;6.584;2022-08-02T04:32:43;101799.22;;;22.24;45.17
69749;BME280;57019;52.354;6.584;2022-08-02T04:35:09;101797.56;;;22.23;45.18
69749;BME280;57019;52.354;6.584;2022-08-02T04:37:36;101798.41;;;22.23;45.26
69749;BME280;57019;52.354;6.584;2022-08-02T04:40:02;101796.56;;;22.24;45.28
69749;BME280;57019;52.354;6.584;2022-08-02T04:42:28;101793.94;;;22.24;45.19
69749;BME280;57019;52.354;6.584;2022-08-02T04:44:54;101797.56;;;22.23;45.21
69749;BME280;57019;52.354;6.584;2022-08-02T04:47:20;101803.00;;;22.21;45.46
69749;BME280;57019;52.354;6.584;2022-08-02T04:49:46;101813.84;;;22.26;45.48
69749;BME280;57019;52.354;6.584;2022-08-02T04:52:12;101823.66;;;22.32;45.41
69749;BME280;57019;52.354;6.584;2022-08-02T04:54:37;101826.00;;;22.35;45.34
69749;BME280;57019;52.354;6.584;2022-08-02T04:57:03;101817.91;;;22.37;45.38
69749;BME280;57019;52.354;6.584;2022-08-02T04:59:49;101815.91;;;22.39;45.12
69749;BME280;57019;52.354;6.584;2022-08-02T05:02:14;101814.59;;;22.43;45.19
69749;BME280;57019;52.354;6.584;2022-08-02T05:04:40;101816.22;;;22.44;45.15
69749;BME280;57019;52.354;6.584;2022-08-02T05:07:05;101803.25;;;22.43;45.27
69749;BME280;57019;52.354;6.584;2022-08-02T05:09:30;101796.03;;;22.36;45.33
69749;BME280;57019;52.354;6.584;2022-08-02T05:11:55;101795.53;;;22.33;45.36
69749;BME280;57019;52.354;6.584;2022-08-02T05:14:21;101799.84;;;22.34;45.35
69749;BME280;57019;52.354;6.584;2022-08-02T05:16:46;101792.06;;;22.32;45.43
69749;BME280;57019;52.354;6.584;2022-08-02T05:19:11;101791.28;;;22.32;45.55
69749;BME280;57019;52.354;6.584;2022-08-02T05:21:37;101782.75;;;22.30;45.45
69749;BME280;57019;52.354;6.584;2022-08-02T05:24:02;101789.97;;;22.28;45.47
69749;BME280;57019;52.354;6.584;2022-08-02T05:26:28;101788.34;;;22.27;45.52
69749;BME280;57019;52.354;6.584;2022-08-02T05:28:53;101790.34;;;22.25;45.42
69749;BME280;57019;52.354;6.584;2022-08-02T05:31:18;101796.41;;;22.25;45.47
69749;BME280;57019;52.354;6.584;2022-08-02T05:33:44;101795.25;;;22.28;45.37
69749;BME280;57019;52.354;6.584;2022-08-02T05:36:09;101802.16;;;22.29;45.56
69749;BME280;57019;52.354;6.584;2022-08-02T05:38:35;101803.78;;;22.30;45.64
69749;BME280;57019;52.354;6.584;2022-08-02T05:41:00;101796.53;;;22.32;45.27
69749;BME280;57019;52.354;6.584;2022-08-02T05:43:26;101786.53;;;22.35;45.57
69749;BME280;57019;52.354;6.584;2022-08-02T05:45:51;101793.41;;;22.36;45.34
69749;BME280;57019;52.354;6.584;2022-08-02T05:48:17;101791.44;;;22.39;45.45
69749;BME280;57019;52.354;6.584;2022-08-02T05:50:44;101785.81;;;22.42;45.34
69749;BME280;57019;52.354;6.584;2022-08-02T05:56:24;101784.47;;;22.46;45.42
69749;BME280;57019;52.354;6.584;2022-08-02T05:59:04;101788.75;;;22.47;45.44
69749;BME280;57019;52.354;6.584;2022-08-02T06:01:37;101780.69;;;22.48;45.48
69749;BME280;57019;52.354;6.584;2022-08-02T06:04:07;101783.97;;;22.50;45.39
69749;BME280;57019;52.354;6.584;2022-08-02T06:06:35;101779.16;;;22.54;45.60
69749;BME280;57019;52.354;6.584;2022-08-02T06:09:08;101769.91;;;22.58;45.58
69749;BME280;57019;52.354;6.584;2022-08-02T06:11:37;101778.28;;;22.62;45.34
69749;BME280;57019;52.354;6.584;2022-08-02T06:14:06;101787.84;;;22.63;45.50
69749;BME280;57019;52.354;6.584;2022-08-02T06:16:32;101786.63;;;22.65;45.47
69749;BME280;57019;52.354;6.584;2022-08-02T06:18:58;101778.59;;;22.67;45.47
69749;BME280;57019;52.354;6.584;2022-08-02T06:21:25;101774.94;;;22.68;45.59
69749;BME280;57019;52.354;6.584;2022-08-02T06:23:50;101776.59;;;22.69;45.82
69749;BME280;57019;52.354;6.584;2022-08-02T06:26:16;101781.66;;;22.70;45.88
69749;BME280;57019;52.354;6.584;2022-08-02T06:28:44;101779.88;;;22.71;45.90
69749;BME280;57019;52.354;6.584;2022-08-02T06:31:11;101774.25;;;22.74;46.01
69749;BME280;57019;52.354;6.584;2022-08-02T06:33:38;101782.78;;;22.76;46.03
69749;BME280;57019;52.354;6.584;2022-08-02T06:36:18;101776.53;;;22.77;45.84
69749;BME280;57019;52.354;6.584;2022-08-02T06:39:05;101773.53;;;22.80;45.83
69749;BME280;57019;52.354;6.584;2022-08-02T06:41:40;101782.09;;;22.82;45.88
69749;BME280;57019;52.354;6.584;2022-08-02T06:44:07;101775.97;;;22.82;46.00
69749;BME280;57019;52.354;6.584;2022-08-02T06:46:32;101780.44;;;22.81;45.87
69749;BME280;57019;52.354;6.584;2022-08-02T06:48:59;101782.09;;;22.82;45.94
69749;BME280;57019;52.354;6.584;2022-08-02T06:51:24;101764.81;;;22.80;46.33
69749;BME280;57019;52.354;6.584;2022-08-02T06:53:50;101778.00;;;22.80;46.33
69749;BME280;57019;52.354;6.584;2022-08-02T06:56:15;101769.09;;;22.81;46.35
69749;BME280;57019;52.354;6.584;2022-08-02T06:58:40;101765.63;;;22.80;46.51
69749;BME280;57019;52.354;6.584;2022-08-02T07:01:06;101754.09;;;22.81;46.32
69749;BME280;57019;52.354;6.584;2022-08-02T07:03:33;101759.38;;;22.81;46.37
69749;BME280;57019;52.354;6.584;2022-08-02T07:05:59;101759.00;;;22.84;46.51
69749;BME280;57019;52.354;6.584;2022-08-02T07:08:25;101755.88;;;22.89;46.45
69749;BME280;57019;52.354;6.584;2022-08-02T07:10:51;101745.34;;;22.89;46.36
69749;BME280;57019;52.354;6.584;2022-08-02T07:13:16;101760.41;;;22.95;46.34
69749;BME280;57019;52.354;6.584;2022-08-02T07:15:42;101762.06;;;22.96;46.48
69749;BME280;57019;52.354;6.584;2022-08-02T07:18:07;101763.50;;;22.99;46.39
69749;BME280;57019;52.354;6.584;2022-08-02T07:20:39;101758.06;;;23.00;46.14
69749;BME280;57019;52.354;6.584;2022-08-02T07:23:05;101751.63;;;23.03;46.54
69749;BME280;57019;52.354;6.584;2022-08-02T07:25:30;101737.47;;;23.04;46.49
69749;BME280;57019;52.354;6.584;2022-08-02T07:27:55;101740.72;;;23.06;46.60
69749;BME280;57019;52.354;6.584;2022-08-02T07:30:20;101741.38;;;23.08;46.80
69749;BME280;57019;52.354;6.584;2022-08-02T07:32:46;101729.81;;;23.09;46.70
69749;BME280;57019;52.354;6.584;2022-08-02T07:35:11;101724.91;;;23.06;46.84
69749;BME280;57019;52.354;6.584;2022-08-02T07:37:36;101732.19;;;23.04;46.90
69749;BME280;57019;52.354;6.584;2022-08-02T07:40:04;101727.56;;;23.06;46.74
69749;BME280;57019;52.354;6.584;2022-08-02T07:42:30;101725.56;;;23.08;46.98
69749;BME280;57019;52.354;6.584;2022-08-02T07:44:55;101729.81;;;23.09;46.92
69749;BME280;57019;52.354;6.584;2022-08-02T07:47:20;101730.47;;;23.11;46.81
69749;BME280;57019;52.354;6.584;2022-08-02T07:49:46;101733.09;;;23.11;46.94
69749;BME280;57019;52.354;6.584;2022-08-02T07:52:11;101726.19;;;23.10;47.13
69749;BME280;57019;52.354;6.584;2022-08-02T07:54:36;101729.50;;;23.12;47.10
69749;BME280;57019;52.354;6.584;2022-08-02T07:57:02;101716.97;;;23.14;47.16
69749;BME280;57019;52.354;6.584;2022-08-02T07:59:27;101718.59;;;23.15;47.41
69749;BME280;57019;52.354;6.584;2022-08-02T08:01:53;101728.16;;;23.16;47.53
69749;BME280;57019;52.354;6.584;2022-08-02T08:04:18;101724.31;;;23.19;47.65
69749;BME280;57019;52.354;6.584;2022-08-02T08:06:44;101714.63;;;23.19;47.63
69749;BME280;57019;52.354;6.584;2022-08-02T08:09:10;101708.50;;;23.19;47.90
69749;BME280;57019;52.354;6.584;2022-08-02T08:11:35;101710.34;;;23.18;47.72
69749;BME280;57019;52.354;6.584;2022-08-02T08:14:01;101702.44;;;23.18;47.82
69749;BME280;57019;52.354;6.584;2022-08-02T08:16:26;101702.06;;;23.21;47.88
69749;BME280;57019;52.354;6.584;2022-08-02T08:18:53;101709.97;;;23.21;47.94
69749;BME280;57019;52.354;6.584;2022-08-02T08:21:19;101705.34;;;23.24;48.07
69749;BME280;57019;52.354;6.584;2022-08-02T08:23:44;101698.25;;;23.24;48.11
69749;BME280;57019;52.354;6.584;2022-08-02T08:26:09;101698.06;;;23.26;47.99
69749;BME280;57019;52.354;6.584;2022-08-02T08:28:35;101691.19;;;23.25;48.06
69749;BME280;57019;52.354;6.584;2022-08-02T08:31:00;101687.28;;;23.20;48.05
69749;BME280;57019;52.354;6.584;2022-08-02T08:33:26;101691.72;;;23.20;48.00
69749;BME280;57019;52.354;6.584;2022-08-02T08:35:52;101686.63;;;23.18;47.82
69749;BME280;57019;52.354;6.584;2022-08-02T08:38:17;101691.91;;;23.18;47.90
69749;BME280;57019;52.354;6.584;2022-08-02T08:40:43;101679.72;;;23.17;47.82
69749;BME280;57019;52.354;6.584;2022-08-02T08:43:11;101674.44;;;23.17;47.98
69749;BME280;57019;52.354;6.584;2022-08-02T08:45:38;101677.06;;;23.17;47.88
69749;BME280;57019;52.354;6.584;2022-08-02T08:48:09;101674.09;;;23.20;47.83
69749;BME280;57019;52.354;6.584;2022-08-02T08:50:40;101673.06;;;23.21;47.92
69749;BME280;57019;52.354;6.584;2022-08-02T08:53:09;101677.34;;;23.23;47.83
69749;BME280;57019;52.354;6.584;2022-08-02T08:55:35;101678.34;;;23.21;48.14
69749;BME280;57019;52.354;6.584;2022-08-02T08:58:03;101669.63;;;23.21;47.95
69749;BME280;57019;52.354;6.584;2022-08-02T09:00:46;101668.47;;;23.24;47.96
69749;BME280;57019;52.354;6.584;2022-08-02T09:03:12;101673.72;;;23.24;47.98
69749;BME280;57019;52.354;6.584;2022-08-02T09:05:38;101665.53;;;23.18;48.22
69749;BME280;57019;52.354;6.584;2022-08-02T09:08:04;101670.81;;;23.18;48.23
69749;BME280;57019;52.354;6.584;2022-08-02T09:10:38;101662.91;;;23.18;48.04
69749;BME280;57019;52.354;6.584;2022-08-02T09:13:15;101669.44;;;23.23;48.00
69749;BME280;57019;52.354;6.584;2022-08-02T09:15:43;101660.75;;;23.22;47.96
69749;BME280;57019;52.354;6.584;2022-08-02T09:18:09;101661.53;;;23.23;47.83
69749;BME280;57019;52.354;6.584;2022-08-02T09:20:50;101662.34;;;23.23;47.88
69749;BME280;57019;52.354;6.584;2022-08-02T09:23:16;101657.94;;;23.24;47.89
69749;BME280;57019;52.354;6.584;2022-08-02T09:25:57;101667.47;;;23.25;48.01
69749;BME280;57019;52.354;6.584;2022-08-02T09:28:31;101661.19;;;23.26;47.95
69749;BME280;57019;52.354;6.584;2022-08-02T09:31:21;101667.28;;;23.26;47.95
69749;BME280;57019;52.354;6.584;2022-08-02T09:33:57;101657.94;;;23.24;48.01
69749;BME280;57019;52.354;6.584;2022-08-02T09:36:24;101662.81;;;23.27;48.04
69749;BME280;57019;52.354;6.584;2022-08-02T09:41:29;101662.81;;;23.27;48.17
69749;BME280;57019;52.354;6.584;2022-08-02T09:43:55;101667.28;;;23.26;48.04
69749;BME280;57019;52.354;6.584;2022-08-02T09:46:45;101659.19;;;23.28;48.31
69749;BME280;57019;52.354;6.584;2022-08-02T09:49:13;101651.09;;;23.29;48.84
69749;BME280;57019;52.354;6.584;2022-08-02T09:54:22;101651.56;;;23.33;48.86
69749;BME280;57019;52.354;6.584;2022-08-02T09:56:50;101654.81;;;23.35;49.05
69749;BME280;57019;52.354;6.584;2022-08-02T09:59:18;101650.00;;;23.38;49.01
69749;BME280;57019;52.354;6.584;2022-08-02T10:01:45;101655.72;;;23.42;49.26
69749;BME280;57019;52.354;6.584;2022-08-02T10:04:13;101643.97;;;23.45;49.35
69749;BME280;57019;52.354;6.584;2022-08-02T10:06:41;101639.19;;;23.48;49.49
69749;BME280;57019;52.354;6.584;2022-08-02T10:09:09;101651.34;;;23.49;49.57
69749;BME280;57019;52.354;6.584;2022-08-02T10:11:35;101641.44;;;23.51;49.66
69749;BME280;57019;52.354;6.584;2022-08-02T10:14:05;101632.16;;;23.55;49.74
69749;BME280;57019;52.354;6.584;2022-08-02T10:16:33;101631.16;;;23.57;49.85
69749;BME280;57019;52.354;6.584;2022-08-02T10:19:00;101631.34;;;23.55;50.07
69749;BME280;57019;52.354;6.584;2022-08-02T10:21:32;101636.63;;;23.55;50.07
69749;BME280;57019;52.354;6.584;2022-08-02T10:24:21;101618.34;;;23.53;50.15
69749;BME280;57019;52.354;6.584;2022-08-02T10:26:47;101622.00;;;23.52;50.30
69749;BME280;57019;52.354;6.584;2022-08-02T10:29:23;101625.03;;;23.56;50.36
69749;BME280;57019;52.354;6.584;2022-08-02T10:31:57;101637.03;;;23.59;50.34
69749;BME280;57019;52.354;6.584;2022-08-02T10:34:47;101627.34;;;23.59;50.34
69749;BME280;57019;52.354;6.584;2022-08-02T10:37:13;101642.97;;;23.61;50.37
69749;BME280;57019;52.354;6.584;2022-08-02T10:39:41;101646.22;;;23.63;50.43
69749;BME280;57019;52.354;6.584;2022-08-02T10:42:07;101639.16;;;23.63;50.41
69749;BME280;57019;52.354;6.584;2022-08-02T10:44:34;101637.31;;;23.64;50.24
69749;BME280;57019;52.354;6.584;2022-08-02T10:47:20;101640.94;;;23.63;50.04
69749;BME280;57019;52.354;6.584;2022-08-02T10:49:52;101641.78;;;23.63;49.76
69749;BME280;57019;52.354;6.584;2022-08-02T10:52:19;101646.22;;;23.63;49.82
69749;BME280;57019;52.354;6.584;2022-08-02T10:54:53;101637.31;;;23.64;49.58
69749;BME280;57019;52.354;6.584;2022-08-02T11:00:08;101640.22;;;23.69;49.38
69749;BME280;57019;52.354;6.584;2022-08-02T11:02:35;101645.88;;;23.66;49.28
69749;BME280;57019;52.354;6.584;2022-08-02T11:05:05;101629.66;;;23.69;49.21
69749;BME280;57019;52.354;6.584;2022-08-02T11:07:48;101637.78;;;23.67;49.18
69749;BME280;57019;52.354;6.584;2022-08-02T11:10:32;101640.59;;;23.66;49.17
69749;BME280;57019;52.354;6.584;2022-08-02T11:13:02;101638.13;;;23.64;49.29
69749;BME280;57019;52.354;6.584;2022-08-02T11:15:28;101634.06;;;23.62;49.18
69749;BME280;57019;52.354;6.584;2022-08-02T11:17:55;101621.88;;;23.61;49.41
69749;BME280;57019;52.354;6.584;2022-08-02T11:20:24;101620.69;;;23.63;49.24
69749;BME280;57019;52.354;6.584;2022-08-02T11:22:51;101626.78;;;23.64;49.08
69749;BME280;57019;52.354;6.584;2022-08-02T11:27:49;101630.41;;;23.63;49.43
69749;BME280;57019;52.354;6.584;2022-08-02T11:30:15;101620.69;;;23.63;49.30
69749;BME280;57019;52.354;6.584;2022-08-02T11:32:41;101619.66;;;23.64;49.31
69749;BME280;57019;52.354;6.584;2022-08-02T11:35:07;101618.84;;;23.64;49.14
69749;BME280;57019;52.354;6.584;2022-08-02T11:37:38;101625.97;;;23.63;49.20
69749;BME280;57019;52.354;6.584;2022-08-02T11:40:07;101623.13;;;23.65;49.11
69749;BME280;57019;52.354;6.584;2022-08-02T11:42:35;101621.50;;;23.64;49.06
69749;BME280;57019;52.354;6.584;2022-08-02T11:45:03;101624.31;;;23.62;48.82
69749;BME280;57019;52.354;6.584;2022-08-02T11:47:28;101627.16;;;23.61;48.67
69749;BME280;57019;52.354;6.584;2022-08-02T11:50:09;101625.97;;;23.63;48.80
69749;BME280;57019;52.354;6.584;2022-08-02T11:52:35;101616.59;;;23.61;48.61
69749;BME280;57019;52.354;6.584;2022-08-02T11:55:01;101620.69;;;23.63;48.87
69749;BME280;57019;52.354;6.584;2022-08-02T11:57:26;101621.50;;;23.64;48.82
69749;BME280;57019;52.354;6.584;2022-08-02T11:59:54;101626.78;;;23.64;48.87
69749;BME280;57019;52.354;6.584;2022-08-02T12:02:22;101626.78;;;23.64;48.75
69749;BME280;57019;52.354;6.584;2022-08-02T12:04:53;101637.31;;;23.64;48.88
69749;BME280;57019;52.354;6.584;2022-08-02T12:07:25;101638.97;;;23.65;48.71
69749;BME280;57019;52.354;6.584;2022-08-02T12:09:51;101626.38;;;23.67;48.86
69749;BME280;57019;52.354;6.584;2022-08-02T12:12:16;101634.09;;;23.68;49.06
69749;BME280;57019;52.354;6.584;2022-08-02T12:14:42;101621.75;;;23.69;49.35
69749;BME280;57019;52.354;6.584;2022-08-02T12:17:10;101612.84;;;23.70;49.49
69749;BME280;57019;52.354;6.584;2022-08-02T12:19:54;101617.09;;;23.71;49.51
69749;BME280;57019;52.354;6.584;2022-08-02T12:22:24;101621.38;;;23.72;49.26
69749;BME280;57019;52.354;6.584;2022-08-02T12:24:52;101615.09;;;23.73;49.67
69749;BME280;57019;52.354;6.584;2022-08-02T12:27:29;101619.81;;;23.78;49.64
69749;BME280;57019;52.354;6.584;2022-08-02T12:29:59;101611.09;;;23.77;49.62
69749;BME280;57019;52.354;6.584;2022-08-02T12:32:26;101613.53;;;23.79;49.78
69749;BME280;57019;52.354;6.584;2022-08-02T12:35:20;101612.97;;;23.83;49.72
69749;BME280;57019;52.354;6.584;2022-08-02T12:37:48;101616.44;;;23.84;49.52
69749;BME280;57019;52.354;6.584;2022-08-02T12:40:29;101613.63;;;23.85;49.56
69749;BME280;57019;52.354;6.584;2022-08-02T12:43:00;101608.34;;;23.85;50.03
69749;BME280;57019;52.354;6.584;2022-08-02T12:45:28;101621.34;;;23.87;49.83
69749;BME280;57019;52.354;6.584;2022-08-02T12:47:55;101618.53;;;23.88;49.61
69749;BME280;57019;52.354;6.584;2022-08-02T12:50:33;101612.44;;;23.88;49.84
69749;BME280;57019;52.354;6.584;2022-08-02T12:53:07;101605.50;;;23.87;49.65
69749;BME280;57019;52.354;6.584;2022-08-02T12:55:33;101598.41;;;23.87;49.80
69749;BME280;57019;52.354;6.584;2022-08-02T12:58:03;101600.22;;;23.87;49.81
69749;BME280;57019;52.354;6.584;2022-08-02T13:00:58;101591.53;;;23.86;49.84
69749;BME280;57019;52.354;6.584;2022-08-02T13:03:23;101586.88;;;23.88;49.85
69749;BME280;57019;52.354;6.584;2022-08-02T13:05:57;101579.94;;;23.87;49.68
69749;BME280;57019;52.354;6.584;2022-08-02T13:08:22;101582.56;;;23.87;49.70
69749;BME280;57019;52.354;6.584;2022-08-02T13:10:49;101589.53;;;23.88;49.83
69749;BME280;57019;52.354;6.584;2022-08-02T13:13:14;101582.41;;;23.89;49.73
69749;BME280;57019;52.354;6.584;2022-08-02T13:15:43;101584.88;;;23.91;49.70
69749;BME280;57019;52.354;6.584;2022-08-02T13:18:08;101582.88;;;23.93;49.66